Terminal Aerodrome Forecast
Issued by NWS Cleveland, OH

Home | Current Version | Previous Version | Text Only | Print | Product List | Glossary On
Versions: 1 2 3 4 5 6 7 8 9 10 11 12 13 14 15 16 17 18 19 20 21 22 23 24 25 26 27 28
000
FTUS41 KCLE 261400 AAB
TAFMFD
TAF AMD
KMFD 261419Z 2614/2712 36012KT 5SM BR BKN009 OVC015
     FM261700 34010KT P6SM SCT015 OVC035
     FM270000 32004KT P6SM OVC015=

USA.gov is the U.S. government's official web portal to all federal, state and local government web resources and services.